sensor_id;sensor_type;location;lat;lon;timestamp;P1;durP1;ratioP1;P2;durP2;ratioP2
66619;SDS011;53484;51.356;6.732;2023-03-01T00:01:59;14.60;;;7.93;;
66619;SDS011;53484;51.356;6.732;2023-03-01T00:04:26;14.38;;;7.72;;
66619;SDS011;53484;51.356;6.732;2023-03-01T00:06:54;13.57;;;7.85;;
66619;SDS011;53484;51.356;6.732;2023-03-01T00:09:20;15.77;;;8.10;;
66619;SDS011;53484;51.356;6.732;2023-03-01T00:11:47;14.80;;;8.25;;
66619;SDS011;53484;51.356;6.732;2023-03-01T00:14:13;15.43;;;7.78;;
66619;SDS011;53484;51.356;6.732;2023-03-01T00:16:41;14.00;;;8.40;;
66619;SDS011;53484;51.356;6.732;2023-03-01T00:19:09;17.30;;;9.07;;
66619;SDS011;53484;51.356;6.732;2023-03-01T00:21:37;18.60;;;8.03;;
66619;SDS011;53484;51.356;6.732;2023-03-01T00:24:05;16.58;;;8.23;;
66619;SDS011;53484;51.356;6.732;2023-03-01T00:26:31;13.10;;;7.70;;
66619;SDS011;53484;51.356;6.732;2023-03-01T00:28:58;18.40;;;8.15;;
66619;SDS011;53484;51.356;6.732;2023-03-01T00:31:25;17.00;;;8.10;;
66619;SDS011;53484;51.356;6.732;2023-03-01T00:33:52;14.43;;;8.30;;
66619;SDS011;53484;51.356;6.732;2023-03-01T00:36:18;14.35;;;8.07;;
66619;SDS011;53484;51.356;6.732;2023-03-01T00:38:45;14.15;;;8.48;;
66619;SDS011;53484;51.356;6.732;2023-03-01T00:41:13;14.02;;;8.32;;
66619;SDS011;53484;51.356;6.732;2023-03-01T00:43:40;12.65;;;8.23;;
66619;SDS011;53484;51.356;6.732;2023-03-01T00:46:07;14.20;;;7.20;;
66619;SDS011;53484;51.356;6.732;2023-03-01T00:48:34;16.08;;;7.97;;
66619;SDS011;53484;51.356;6.732;2023-03-01T00:51:04;15.95;;;8.32;;
66619;SDS011;53484;51.356;6.732;2023-03-01T00:53:30;13.88;;;8.30;;
66619;SDS011;53484;51.356;6.732;2023-03-01T00:55:57;15.33;;;8.23;;
66619;SDS011;53484;51.356;6.732;2023-03-01T00:58:24;14.70;;;8.60;;
66619;SDS011;53484;51.356;6.732;2023-03-01T01:00:50;14.05;;;7.93;;
66619;SDS011;53484;51.356;6.732;2023-03-01T01:03:17;21.13;;;8.45;;
66619;SDS011;53484;51.356;6.732;2023-03-01T01:05:43;20.70;;;8.95;;
66619;SDS011;53484;51.356;6.732;2023-03-01T01:08:09;13.70;;;7.77;;
66619;SDS011;53484;51.356;6.732;2023-03-01T01:10:36;16.10;;;8.52;;
66619;SDS011;53484;51.356;6.732;2023-03-01T01:13:02;16.80;;;8.23;;
66619;SDS011;53484;51.356;6.732;2023-03-01T01:15:31;14.60;;;7.30;;
66619;SDS011;53484;51.356;6.732;2023-03-01T01:17:59;16.53;;;8.47;;
66619;SDS011;53484;51.356;6.732;2023-03-01T01:20:25;15.15;;;7.45;;
66619;SDS011;53484;51.356;6.732;2023-03-01T01:22:51;16.92;;;9.40;;
66619;SDS011;53484;51.356;6.732;2023-03-01T01:25:18;14.90;;;8.07;;
66619;SDS011;53484;51.356;6.732;2023-03-01T01:27:44;14.23;;;8.03;;
66619;SDS011;53484;51.356;6.732;2023-03-01T01:30:11;15.18;;;8.18;;
66619;SDS011;53484;51.356;6.732;2023-03-01T01:32:39;14.80;;;8.75;;
66619;SDS011;53484;51.356;6.732;2023-03-01T01:35:05;14.15;;;7.97;;
66619;SDS011;53484;51.356;6.732;2023-03-01T01:37:32;15.97;;;8.37;;
66619;SDS011;53484;51.356;6.732;2023-03-01T01:39:58;15.18;;;8.40;;
66619;SDS011;53484;51.356;6.732;2023-03-01T01:42:25;13.85;;;7.85;;
66619;SDS011;53484;51.356;6.732;2023-03-01T01:47:32;13.77;;;8.27;;
66619;SDS011;53484;51.356;6.732;2023-03-01T01:50:00;16.42;;;8.43;;
66619;SDS011;53484;51.356;6.732;2023-03-01T01:52:28;15.93;;;8.02;;
66619;SDS011;53484;51.356;6.732;2023-03-01T01:54:56;15.82;;;8.77;;
66619;SDS011;53484;51.356;6.732;2023-03-01T01:57:26;16.10;;;8.25;;
66619;SDS011;53484;51.356;6.732;2023-03-01T01:59:54;12.35;;;8.30;;
66619;SDS011;53484;51.356;6.732;2023-03-01T02:02:21;13.55;;;8.25;;
66619;SDS011;53484;51.356;6.732;2023-03-01T02:04:48;14.73;;;7.82;;
66619;SDS011;53484;51.356;6.732;2023-03-01T02:07:18;15.27;;;8.17;;
66619;SDS011;53484;51.356;6.732;2023-03-01T02:09:46;14.70;;;8.00;;
66619;SDS011;53484;51.356;6.732;2023-03-01T02:12:13;16.42;;;7.97;;
66619;SDS011;53484;51.356;6.732;2023-03-01T02:14:39;13.40;;;8.23;;
66619;SDS011;53484;51.356;6.732;2023-03-01T02:17:06;14.70;;;8.23;;
66619;SDS011;53484;51.356;6.732;2023-03-01T02:19:42;16.13;;;8.60;;
66619;SDS011;53484;51.356;6.732;2023-03-01T02:22:12;15.10;;;8.40;;
66619;SDS011;53484;51.356;6.732;2023-03-01T02:24:45;16.25;;;8.68;;
66619;SDS011;53484;51.356;6.732;2023-03-01T02:27:15;16.07;;;8.70;;
66619;SDS011;53484;51.356;6.732;2023-03-01T02:29:43;18.92;;;8.20;;
66619;SDS011;53484;51.356;6.732;2023-03-01T02:32:09;16.15;;;8.88;;
66619;SDS011;53484;51.356;6.732;2023-03-01T02:34:36;14.15;;;8.40;;
66619;SDS011;53484;51.356;6.732;2023-03-01T02:37:04;15.57;;;8.90;;
66619;SDS011;53484;51.356;6.732;2023-03-01T02:39:33;16.30;;;8.68;;
66619;SDS011;53484;51.356;6.732;2023-03-01T02:42:00;15.88;;;8.55;;
66619;SDS011;53484;51.356;6.732;2023-03-01T02:44:27;16.83;;;9.15;;
66619;SDS011;53484;51.356;6.732;2023-03-01T02:46:56;18.30;;;9.37;;
66619;SDS011;53484;51.356;6.732;2023-03-01T02:49:24;16.70;;;8.73;;
66619;SDS011;53484;51.356;6.732;2023-03-01T02:52:01;15.65;;;8.20;;
66619;SDS011;53484;51.356;6.732;2023-03-01T02:54:31;16.98;;;8.40;;
66619;SDS011;53484;51.356;6.732;2023-03-01T02:56:59;16.03;;;8.90;;
66619;SDS011;53484;51.356;6.732;2023-03-01T02:59:27;15.18;;;9.13;;
66619;SDS011;53484;51.356;6.732;2023-03-01T03:01:55;19.73;;;9.23;;
66619;SDS011;53484;51.356;6.732;2023-03-01T03:04:22;15.85;;;8.85;;
66619;SDS011;53484;51.356;6.732;2023-03-01T03:06:49;17.10;;;8.60;;
66619;SDS011;53484;51.356;6.732;2023-03-01T03:09:16;14.98;;;8.93;;
66619;SDS011;53484;51.356;6.732;2023-03-01T03:11:42;15.48;;;8.68;;
66619;SDS011;53484;51.356;6.732;2023-03-01T03:14:09;16.30;;;8.88;;
66619;SDS011;53484;51.356;6.732;2023-03-01T03:16:38;15.65;;;9.20;;
66619;SDS011;53484;51.356;6.732;2023-03-01T03:19:06;18.67;;;8.40;;
66619;SDS011;53484;51.356;6.732;2023-03-01T03:21:32;19.08;;;9.40;;
66619;SDS011;53484;51.356;6.732;2023-03-01T03:23:59;15.93;;;8.90;;
66619;SDS011;53484;51.356;6.732;2023-03-01T03:26:25;16.27;;;8.82;;
66619;SDS011;53484;51.356;6.732;2023-03-01T03:28:52;17.55;;;9.45;;
66619;SDS011;53484;51.356;6.732;2023-03-01T03:31:18;15.70;;;8.30;;
66619;SDS011;53484;51.356;6.732;2023-03-01T03:33:44;16.63;;;9.20;;
66619;SDS011;53484;51.356;6.732;2023-03-01T03:36:15;18.83;;;9.23;;
66619;SDS011;53484;51.356;6.732;2023-03-01T03:38:42;16.92;;;8.82;;
66619;SDS011;53484;51.356;6.732;2023-03-01T03:41:09;16.65;;;8.65;;
66619;SDS011;53484;51.356;6.732;2023-03-01T03:43:36;18.33;;;8.87;;
66619;SDS011;53484;51.356;6.732;2023-03-01T03:46:03;15.23;;;8.50;;
66619;SDS011;53484;51.356;6.732;2023-03-01T03:48:32;20.48;;;9.65;;
66619;SDS011;53484;51.356;6.732;2023-03-01T03:50:59;18.65;;;8.40;;
66619;SDS011;53484;51.356;6.732;2023-03-01T03:53:27;16.33;;;9.73;;
66619;SDS011;53484;51.356;6.732;2023-03-01T03:55:53;17.88;;;10.00;;
66619;SDS011;53484;51.356;6.732;2023-03-01T03:58:22;18.85;;;9.75;;
66619;SDS011;53484;51.356;6.732;2023-03-01T04:00:50;15.93;;;9.23;;
66619;SDS011;53484;51.356;6.732;2023-03-01T04:03:17;19.37;;;9.13;;
66619;SDS011;53484;51.356;6.732;2023-03-01T04:05:45;15.93;;;8.80;;
66619;SDS011;53484;51.356;6.732;2023-03-01T04:08:11;21.30;;;9.55;;
66619;SDS011;53484;51.356;6.732;2023-03-01T04:10:39;20.48;;;9.38;;
66619;SDS011;53484;51.356;6.732;2023-03-01T04:13:06;15.63;;;9.25;;
66619;SDS011;53484;51.356;6.732;2023-03-01T04:15:33;18.25;;;9.00;;
66619;SDS011;53484;51.356;6.732;2023-03-01T04:17:59;19.58;;;9.43;;
66619;SDS011;53484;51.356;6.732;2023-03-01T04:20:27;14.87;;;8.50;;
66619;SDS011;53484;51.356;6.732;2023-03-01T04:22:56;15.43;;;8.88;;
66619;SDS011;53484;51.356;6.732;2023-03-01T04:25:23;18.67;;;9.10;;
66619;SDS011;53484;51.356;6.732;2023-03-01T04:27:50;15.40;;;8.40;;
66619;SDS011;53484;51.356;6.732;2023-03-01T04:30:17;18.20;;;9.03;;
66619;SDS011;53484;51.356;6.732;2023-03-01T04:32:43;17.42;;;9.00;;
66619;SDS011;53484;51.356;6.732;2023-03-01T04:35:09;17.90;;;9.50;;
66619;SDS011;53484;51.356;6.732;2023-03-01T04:37:36;16.35;;;8.60;;
66619;SDS011;53484;51.356;6.732;2023-03-01T04:40:02;17.27;;;8.80;;
66619;SDS011;53484;51.356;6.732;2023-03-01T04:42:37;17.25;;;9.30;;
66619;SDS011;53484;51.356;6.732;2023-03-01T04:45:06;17.25;;;9.40;;
66619;SDS011;53484;51.356;6.732;2023-03-01T04:47:37;14.90;;;8.85;;
66619;SDS011;53484;51.356;6.732;2023-03-01T04:50:04;19.57;;;9.13;;
66619;SDS011;53484;51.356;6.732;2023-03-01T04:52:31;17.70;;;9.20;;
66619;SDS011;53484;51.356;6.732;2023-03-01T04:54:57;20.13;;;8.70;;
66619;SDS011;53484;51.356;6.732;2023-03-01T04:57:23;17.92;;;9.10;;
66619;SDS011;53484;51.356;6.732;2023-03-01T04:59:49;16.30;;;9.10;;
66619;SDS011;53484;51.356;6.732;2023-03-01T05:02:17;17.40;;;8.68;;
66619;SDS011;53484;51.356;6.732;2023-03-01T05:04:44;16.60;;;9.27;;
66619;SDS011;53484;51.356;6.732;2023-03-01T05:07:10;16.43;;;8.20;;
66619;SDS011;53484;51.356;6.732;2023-03-01T05:09:38;17.50;;;8.52;;
66619;SDS011;53484;51.356;6.732;2023-03-01T05:12:04;15.02;;;8.77;;
66619;SDS011;53484;51.356;6.732;2023-03-01T05:14:31;17.63;;;8.52;;
66619;SDS011;53484;51.356;6.732;2023-03-01T05:16:57;17.60;;;9.10;;
66619;SDS011;53484;51.356;6.732;2023-03-01T05:19:30;18.52;;;9.32;;
66619;SDS011;53484;51.356;6.732;2023-03-01T05:21:56;19.98;;;9.20;;
66619;SDS011;53484;51.356;6.732;2023-03-01T05:24:30;17.50;;;9.40;;
66619;SDS011;53484;51.356;6.732;2023-03-01T05:26:56;16.10;;;8.50;;
66619;SDS011;53484;51.356;6.732;2023-03-01T05:29:23;19.42;;;9.50;;
66619;SDS011;53484;51.356;6.732;2023-03-01T05:31:51;16.55;;;9.25;;
66619;SDS011;53484;51.356;6.732;2023-03-01T05:34:18;17.37;;;8.87;;
66619;SDS011;53484;51.356;6.732;2023-03-01T05:36:49;17.60;;;9.75;;
66619;SDS011;53484;51.356;6.732;2023-03-01T05:39:17;19.23;;;9.18;;
66619;SDS011;53484;51.356;6.732;2023-03-01T05:41:44;17.95;;;8.80;;
66619;SDS011;53484;51.356;6.732;2023-03-01T05:44:10;16.30;;;8.63;;
66619;SDS011;53484;51.356;6.732;2023-03-01T05:46:37;15.50;;;8.77;;
66619;SDS011;53484;51.356;6.732;2023-03-01T05:49:03;16.63;;;8.85;;
66619;SDS011;53484;51.356;6.732;2023-03-01T05:51:30;18.20;;;9.38;;
66619;SDS011;53484;51.356;6.732;2023-03-01T05:53:59;19.77;;;9.73;;
66619;SDS011;53484;51.356;6.732;2023-03-01T05:56:26;19.77;;;9.32;;
66619;SDS011;53484;51.356;6.732;2023-03-01T05:58:52;15.95;;;8.82;;
66619;SDS011;53484;51.356;6.732;2023-03-01T06:01:20;18.23;;;9.50;;
66619;SDS011;53484;51.356;6.732;2023-03-01T06:03:46;16.73;;;9.43;;
66619;SDS011;53484;51.356;6.732;2023-03-01T06:06:13;17.17;;;9.32;;
66619;SDS011;53484;51.356;6.732;2023-03-01T06:08:39;16.63;;;9.07;;
66619;SDS011;53484;51.356;6.732;2023-03-01T06:11:07;17.42;;;9.85;;
66619;SDS011;53484;51.356;6.732;2023-03-01T06:13:33;20.88;;;9.27;;
66619;SDS011;53484;51.356;6.732;2023-03-01T06:16:00;18.88;;;9.57;;
66619;SDS011;53484;51.356;6.732;2023-03-01T06:18:26;20.42;;;9.93;;
66619;SDS011;53484;51.356;6.732;2023-03-01T06:20:53;18.10;;;9.43;;
66619;SDS011;53484;51.356;6.732;2023-03-01T06:23:19;18.90;;;9.18;;
66619;SDS011;53484;51.356;6.732;2023-03-01T06:25:45;18.42;;;9.18;;
66619;SDS011;53484;51.356;6.732;2023-03-01T06:28:13;19.70;;;8.77;;
66619;SDS011;53484;51.356;6.732;2023-03-01T06:30:39;18.45;;;8.75;;
66619;SDS011;53484;51.356;6.732;2023-03-01T06:33:05;18.92;;;9.52;;
66619;SDS011;53484;51.356;6.732;2023-03-01T06:35:32;17.67;;;9.60;;
66619;SDS011;53484;51.356;6.732;2023-03-01T06:37:59;18.35;;;9.50;;
66619;SDS011;53484;51.356;6.732;2023-03-01T06:40:25;20.98;;;9.32;;
66619;SDS011;53484;51.356;6.732;2023-03-01T06:42:52;16.35;;;9.20;;
66619;SDS011;53484;51.356;6.732;2023-03-01T06:45:20;29.10;;;9.63;;
66619;SDS011;53484;51.356;6.732;2023-03-01T06:47:46;16.35;;;9.30;;
66619;SDS011;53484;51.356;6.732;2023-03-01T06:50:13;17.70;;;9.68;;
66619;SDS011;53484;51.356;6.732;2023-03-01T06:52:40;16.95;;;9.35;;
66619;SDS011;53484;51.356;6.732;2023-03-01T06:55:06;19.60;;;9.50;;
66619;SDS011;53484;51.356;6.732;2023-03-01T06:57:33;17.75;;;9.90;;
66619;SDS011;53484;51.356;6.732;2023-03-01T06:59:59;19.02;;;10.27;;
66619;SDS011;53484;51.356;6.732;2023-03-01T07:02:27;18.17;;;9.90;;
66619;SDS011;53484;51.356;6.732;2023-03-01T07:04:53;18.48;;;9.30;;
66619;SDS011;53484;51.356;6.732;2023-03-01T07:07:19;15.70;;;9.05;;
66619;SDS011;53484;51.356;6.732;2023-03-01T07:09:46;20.73;;;9.30;;
66619;SDS011;53484;51.356;6.732;2023-03-01T07:12:13;16.88;;;9.30;;
66619;SDS011;53484;51.356;6.732;2023-03-01T07:14:39;20.70;;;9.90;;
66619;SDS011;53484;51.356;6.732;2023-03-01T07:17:05;18.25;;;9.52;;
66619;SDS011;53484;51.356;6.732;2023-03-01T07:19:33;19.53;;;9.70;;
66619;SDS011;53484;51.356;6.732;2023-03-01T07:21:59;19.08;;;9.90;;
66619;SDS011;53484;51.356;6.732;2023-03-01T07:24:26;18.02;;;9.48;;
66619;SDS011;53484;51.356;6.732;2023-03-01T07:26:52;21.38;;;9.45;;
66619;SDS011;53484;51.356;6.732;2023-03-01T07:29:19;18.52;;;9.23;;
66619;SDS011;53484;51.356;6.732;2023-03-01T07:31:45;20.73;;;10.50;;
66619;SDS011;53484;51.356;6.732;2023-03-01T07:34:11;16.70;;;9.30;;
66619;SDS011;53484;51.356;6.732;2023-03-01T07:36:39;21.23;;;9.87;;
66619;SDS011;53484;51.356;6.732;2023-03-01T07:39:08;18.00;;;9.75;;
66619;SDS011;53484;51.356;6.732;2023-03-01T07:41:34;21.15;;;9.00;;
66619;SDS011;53484;51.356;6.732;2023-03-01T07:44:00;16.88;;;9.73;;
66619;SDS011;53484;51.356;6.732;2023-03-01T07:46:27;18.10;;;9.93;;
66619;SDS011;53484;51.356;6.732;2023-03-01T07:48:53;18.85;;;9.68;;
66619;SDS011;53484;51.356;6.732;2023-03-01T07:51:19;15.73;;;9.32;;
66619;SDS011;53484;51.356;6.732;2023-03-01T07:53:47;17.67;;;9.43;;
66619;SDS011;53484;51.356;6.732;2023-03-01T07:56:14;19.02;;;9.38;;
66619;SDS011;53484;51.356;6.732;2023-03-01T07:58:42;16.42;;;8.90;;
66619;SDS011;53484;51.356;6.732;2023-03-01T08:01:10;17.33;;;9.05;;
66619;SDS011;53484;51.356;6.732;2023-03-01T08:03:37;14.77;;;8.53;;
66619;SDS011;53484;51.356;6.732;2023-03-01T08:06:04;20.52;;;9.57;;
66619;SDS011;53484;51.356;6.732;2023-03-01T08:08:31;19.23;;;9.38;;
66619;SDS011;53484;51.356;6.732;2023-03-01T08:10:59;16.17;;;9.30;;
66619;SDS011;53484;51.356;6.732;2023-03-01T08:13:25;16.92;;;9.25;;
66619;SDS011;53484;51.356;6.732;2023-03-01T08:15:52;21.15;;;9.25;;
66619;SDS011;53484;51.356;6.732;2023-03-01T08:18:19;16.40;;;9.05;;
66619;SDS011;53484;51.356;6.732;2023-03-01T08:20:45;16.30;;;9.20;;
66619;SDS011;53484;51.356;6.732;2023-03-01T08:23:12;18.60;;;9.03;;
66619;SDS011;53484;51.356;6.732;2023-03-01T08:25:38;17.70;;;9.20;;
66619;SDS011;53484;51.356;6.732;2023-03-01T08:28:06;18.83;;;9.27;;
66619;SDS011;53484;51.356;6.732;2023-03-01T08:30:32;18.00;;;8.73;;
66619;SDS011;53484;51.356;6.732;2023-03-01T08:32:58;13.88;;;7.95;;
66619;SDS011;53484;51.356;6.732;2023-03-01T08:35:24;13.67;;;7.67;;
66619;SDS011;53484;51.356;6.732;2023-03-01T08:37:51;16.80;;;8.88;;
66619;SDS011;53484;51.356;6.732;2023-03-01T08:40:17;14.68;;;8.10;;
66619;SDS011;53484;51.356;6.732;2023-03-01T08:42:44;15.45;;;8.48;;
66619;SDS011;53484;51.356;6.732;2023-03-01T08:45:12;17.73;;;8.50;;
66619;SDS011;53484;51.356;6.732;2023-03-01T08:47:39;15.77;;;8.65;;
66619;SDS011;53484;51.356;6.732;2023-03-01T08:50:05;16.30;;;8.73;;
66619;SDS011;53484;51.356;6.732;2023-03-01T08:52:32;16.35;;;9.05;;
66619;SDS011;53484;51.356;6.732;2023-03-01T08:54:58;16.33;;;8.77;;
66619;SDS011;53484;51.356;6.732;2023-03-01T08:57:26;16.70;;;8.23;;
66619;SDS011;53484;51.356;6.732;2023-03-01T08:59:52;18.05;;;8.95;;
66619;SDS011;53484;51.356;6.732;2023-03-01T09:02:22;16.08;;;8.85;;
66619;SDS011;53484;51.356;6.732;2023-03-01T09:04:48;17.07;;;9.13;;
66619;SDS011;53484;51.356;6.732;2023-03-01T09:07:15;16.83;;;8.38;;
66619;SDS011;53484;51.356;6.732;2023-03-01T09:09:41;20.88;;;8.90;;
66619;SDS011;53484;51.356;6.732;2023-03-01T09:12:07;18.77;;;9.57;;
66619;SDS011;53484;51.356;6.732;2023-03-01T09:14:33;17.17;;;8.93;;
66619;SDS011;53484;51.356;6.732;2023-03-01T09:17:02;18.50;;;9.20;;
66619;SDS011;53484;51.356;6.732;2023-03-01T09:19:29;15.27;;;8.90;;
66619;SDS011;53484;51.356;6.732;2023-03-01T09:21:56;20.92;;;9.25;;
66619;SDS011;53484;51.356;6.732;2023-03-01T09:24:23;16.02;;;8.95;;
66619;SDS011;53484;51.356;6.732;2023-03-01T09:26:51;15.68;;;8.50;;
66619;SDS011;53484;51.356;6.732;2023-03-01T09:29:18;15.80;;;8.20;;
66619;SDS011;53484;51.356;6.732;2023-03-01T09:31:45;17.85;;;8.38;;
66619;SDS011;53484;51.356;6.732;2023-03-01T09:34:11;15.73;;;8.40;;
66619;SDS011;53484;51.356;6.732;2023-03-01T09:36:40;15.45;;;8.27;;
66619;SDS011;53484;51.356;6.732;2023-03-01T09:39:06;17.52;;;8.15;;
66619;SDS011;53484;51.356;6.732;2023-03-01T09:41:46;14.80;;;8.23;;
66619;SDS011;53484;51.356;6.732;2023-03-01T09:44:18;16.25;;;8.70;;
66619;SDS011;53484;51.356;6.732;2023-03-01T09:46:47;16.00;;;8.10;;
66619;SDS011;53484;51.356;6.732;2023-03-01T09:49:14;16.90;;;8.00;;
66619;SDS011;53484;51.356;6.732;2023-03-01T09:51:44;17.30;;;8.43;;
66619;SDS011;53484;51.356;6.732;2023-03-01T09:54:12;13.90;;;8.73;;
66619;SDS011;53484;51.356;6.732;2023-03-01T09:56:39;16.23;;;8.60;;
66619;SDS011;53484;51.356;6.732;2023-03-01T09:59:11;16.55;;;8.40;;
66619;SDS011;53484;51.356;6.732;2023-03-01T10:01:44;16.05;;;8.48;;
66619;SDS011;53484;51.356;6.732;2023-03-01T10:04:28;14.68;;;8.82;;
66619;SDS011;53484;51.356;6.732;2023-03-01T10:07:05;16.13;;;8.07;;
66619;SDS011;53484;51.356;6.732;2023-03-01T10:09:33;15.40;;;8.85;;
66619;SDS011;53484;51.356;6.732;2023-03-01T10:12:00;16.75;;;8.88;;
66619;SDS011;53484;51.356;6.732;2023-03-01T10:14:29;15.23;;;8.70;;
66619;SDS011;53484;51.356;6.732;2023-03-01T10:16:57;15.88;;;8.52;;
66619;SDS011;53484;51.356;6.732;2023-03-01T10:19:29;14.33;;;7.87;;
66619;SDS011;53484;51.356;6.732;2023-03-01T10:21:57;15.68;;;7.93;;
66619;SDS011;53484;51.356;6.732;2023-03-01T10:24:26;16.15;;;7.88;;
66619;SDS011;53484;51.356;6.732;2023-03-01T10:26:56;16.08;;;7.90;;
66619;SDS011;53484;51.356;6.732;2023-03-01T10:29:25;14.68;;;8.68;;
66619;SDS011;53484;51.356;6.732;2023-03-01T10:31:53;16.07;;;7.97;;
66619;SDS011;53484;51.356;6.732;2023-03-01T10:34:20;13.38;;;7.38;;
66619;SDS011;53484;51.356;6.732;2023-03-01T10:36:49;18.20;;;8.25;;
66619;SDS011;53484;51.356;6.732;2023-03-01T10:39:17;17.33;;;8.40;;
66619;SDS011;53484;51.356;6.732;2023-03-01T10:41:59;14.13;;;7.45;;
66619;SDS011;53484;51.356;6.732;2023-03-01T10:44:42;15.70;;;8.23;;
66619;SDS011;53484;51.356;6.732;2023-03-01T10:47:17;15.32;;;8.45;;
66619;SDS011;53484;51.356;6.732;2023-03-01T10:52:33;13.52;;;7.55;;
66619;SDS011;53484;51.356;6.732;2023-03-01T10:55:01;13.45;;;7.25;;
66619;SDS011;53484;51.356;6.732;2023-03-01T10:57:30;13.20;;;8.07;;
66619;SDS011;53484;51.356;6.732;2023-03-01T11:00:01;16.02;;;7.70;;
66619;SDS011;53484;51.356;6.732;2023-03-01T11:02:30;14.43;;;8.38;;
66619;SDS011;53484;51.356;6.732;2023-03-01T11:04:58;14.95;;;7.63;;
66619;SDS011;53484;51.356;6.732;2023-03-01T11:07:25;15.77;;;7.18;;
66619;SDS011;53484;51.356;6.732;2023-03-01T11:09:51;13.73;;;8.50;;
66619;SDS011;53484;51.356;6.732;2023-03-01T11:12:18;15.68;;;8.80;;
66619;SDS011;53484;51.356;6.732;2023-03-01T11:14:50;13.55;;;8.25;;
66619;SDS011;53484;51.356;6.732;2023-03-01T11:17:19;13.90;;;8.18;;
66619;SDS011;53484;51.356;6.732;2023-03-01T11:19:49;14.43;;;9.40;;
66619;SDS011;53484;51.356;6.732;2023-03-01T11:22:25;12.23;;;8.03;;
66619;SDS011;53484;51.356;6.732;2023-03-01T11:24:53;11.73;;;8.20;;
66619;SDS011;53484;51.356;6.732;2023-03-01T11:27:21;14.88;;;8.77;;
66619;SDS011;53484;51.356;6.732;2023-03-01T11:29:50;12.45;;;8.60;;
66619;SDS011;53484;51.356;6.732;2023-03-01T11:32:17;18.25;;;8.30;;
66619;SDS011;53484;51.356;6.732;2023-03-01T11:34:47;12.60;;;8.33;;
66619;SDS011;53484;51.356;6.732;2023-03-01T11:37:16;13.13;;;8.15;;
66619;SDS011;53484;51.356;6.732;2023-03-01T11:39:51;11.13;;;7.57;;
66619;SDS011;53484;51.356;6.732;2023-03-01T11:42:20;10.90;;;7.65;;
66619;SDS011;53484;51.356;6.732;2023-03-01T11:44:52;12.50;;;7.80;;
66619;SDS011;53484;51.356;6.732;2023-03-01T11:47:26;13.83;;;8.03;;
66619;SDS011;53484;51.356;6.732;2023-03-01T11:49:57;11.02;;;8.38;;
66619;SDS011;53484;51.356;6.732;2023-03-01T11:52:30;11.23;;;8.07;;
66619;SDS011;53484;51.356;6.732;2023-03-01T11:55:04;12.30;;;7.80;;
66619;SDS011;53484;51.356;6.732;2023-03-01T11:57:38;13.60;;;7.95;;
66619;SDS011;53484;51.356;6.732;2023-03-01T12:00:14;12.02;;;8.25;;
66619;SDS011;53484;51.356;6.732;2023-03-01T12:05:33;12.48;;;6.97;;
66619;SDS011;53484;51.356;6.732;2023-03-01T12:08:04;11.50;;;7.68;;
66619;SDS011;53484;51.356;6.732;2023-03-01T12:10:35;11.40;;;7.75;;
66619;SDS011;53484;51.356;6.732;2023-03-01T12:13:05;11.07;;;7.20;;
66619;SDS011;53484;51.356;6.732;2023-03-01T12:15:53;10.55;;;7.00;;
66619;SDS011;53484;51.356;6.732;2023-03-01T12:18:28;10.90;;;7.68;;
66619;SDS011;53484;51.356;6.732;2023-03-01T12:20:58;10.48;;;7.78;;
66619;SDS011;53484;51.356;6.732;2023-03-01T12:26:20;9.38;;;6.95;;
66619;SDS011;53484;51.356;6.732;2023-03-01T12:28:51;12.30;;;7.40;;
66619;SDS011;53484;51.356;6.732;2023-03-01T12:31:35;12.02;;;7.97;;
66619;SDS011;53484;51.356;6.732;2023-03-01T12:34:05;11.20;;;7.78;;
66619;SDS011;53484;51.356;6.732;2023-03-01T12:36:41;11.05;;;7.30;;
66619;SDS011;53484;51.356;6.732;2023-03-01T12:39:14;11.10;;;7.22;;
66619;SDS011;53484;51.356;6.732;2023-03-01T12:41:46;11.63;;;7.30;;
66619;SDS011;53484;51.356;6.732;2023-03-01T12:44:15;12.23;;;7.55;;
66619;SDS011;53484;51.356;6.732;2023-03-01T12:46:54;10.57;;;7.10;;
66619;SDS011;53484;51.356;6.732;2023-03-01T12:49:23;11.63;;;7.53;;
66619;SDS011;53484;51.356;6.732;2023-03-01T12:51:51;9.57;;;7.38;;
66619;SDS011;53484;51.356;6.732;2023-03-01T12:54:20;10.73;;;6.80;;
66619;SDS011;53484;51.356;6.732;2023-03-01T12:56:48;12.80;;;7.00;;
66619;SDS011;53484;51.356;6.732;2023-03-01T12:59:17;10.13;;;7.30;;
66619;SDS011;53484;51.356;6.732;2023-03-01T13:01:48;10.57;;;7.10;;
66619;SDS011;53484;51.356;6.732;2023-03-01T13:04:20;10.73;;;6.82;;
66619;SDS011;53484;51.356;6.732;2023-03-01T13:06:55;10.68;;;7.03;;
66619;SDS011;53484;51.356;6.732;2023-03-01T13:09:27;11.98;;;7.15;;
66619;SDS011;53484;51.356;6.732;2023-03-01T13:11:55;10.77;;;7.72;;
66619;SDS011;53484;51.356;6.732;2023-03-01T13:14:35;12.48;;;7.10;;
66619;SDS011;53484;51.356;6.732;2023-03-01T13:17:01;10.52;;;7.43;;
66619;SDS011;53484;51.356;6.732;2023-03-01T13:19:29;10.73;;;7.10;;
66619;SDS011;53484;51.356;6.732;2023-03-01T13:21:57;10.20;;;7.05;;
66619;SDS011;53484;51.356;6.732;2023-03-01T13:24:24;9.80;;;6.97;;
66619;SDS011;53484;51.356;6.732;2023-03-01T13:27:09;12.20;;;7.30;;
66619;SDS011;53484;51.356;6.732;2023-03-01T13:29:43;11.60;;;8.05;;
66619;SDS011;53484;51.356;6.732;2023-03-01T13:32:18;13.13;;;7.82;;
66619;SDS011;53484;51.356;6.732;2023-03-01T13:34:53;11.60;;;7.60;;
66619;SDS011;53484;51.356;6.732;2023-03-01T13:37:21;10.30;;;7.32;;
66619;SDS011;53484;51.356;6.732;2023-03-01T13:39:48;12.35;;;7.43;;
66619;SDS011;53484;51.356;6.732;2023-03-01T13:42:28;11.40;;;7.22;;
66619;SDS011;53484;51.356;6.732;2023-03-01T13:44:56;11.32;;;7.68;;
66619;SDS011;53484;51.356;6.732;2023-03-01T13:47:22;11.63;;;7.43;;
66619;SDS011;53484;51.356;6.732;2023-03-01T13:49:50;12.45;;;7.43;;
66619;SDS011;53484;51.356;6.732;2023-03-01T13:52:26;14.27;;;8.18;;
66619;SDS011;53484;51.356;6.732;2023-03-01T13:54:57;15.57;;;7.67;;
66619;SDS011;53484;51.356;6.732;2023-03-01T13:57:24;11.30;;;7.53;;
66619;SDS011;53484;51.356;6.732;2023-03-01T13:59:52;12.80;;;8.45;;
66619;SDS011;53484;51.356;6.732;2023-03-01T14:02:18;13.50;;;7.88;;
66619;SDS011;53484;51.356;6.732;2023-03-01T14:04:46;10.75;;;7.35;;
66619;SDS011;53484;51.356;6.732;2023-03-01T14:07:22;12.87;;;7.27;;
66619;SDS011;53484;51.356;6.732;2023-03-01T14:09:51;12.82;;;7.65;;
66619;SDS011;53484;51.356;6.732;2023-03-01T14:12:21;13.15;;;7.20;;
66619;SDS011;53484;51.356;6.732;2023-03-01T14:14:52;12.57;;;7.57;;
66619;SDS011;53484;51.356;6.732;2023-03-01T14:20:09;12.20;;;7.80;;
66619;SDS011;53484;51.356;6.732;2023-03-01T14:22:37;13.95;;;7.55;;
66619;SDS011;53484;51.356;6.732;2023-03-01T14:25:16;12.60;;;7.13;;
66619;SDS011;53484;51.356;6.732;2023-03-01T14:27:43;10.27;;;6.78;;
66619;SDS011;53484;51.356;6.732;2023-03-01T14:30:11;11.10;;;6.85;;
66619;SDS011;53484;51.356;6.732;2023-03-01T14:32:40;13.47;;;7.07;;
66619;SDS011;53484;51.356;6.732;2023-03-01T14:35:18;14.80;;;7.82;;
66619;SDS011;53484;51.356;6.732;2023-03-01T14:37:44;11.23;;;6.15;;
66619;SDS011;53484;51.356;6.732;2023-03-01T14:40:19;14.60;;;6.65;;
66619;SDS011;53484;51.356;6.732;2023-03-01T14:42:45;10.05;;;6.28;;
66619;SDS011;53484;51.356;6.732;2023-03-01T14:45:12;11.80;;;6.37;;
66619;SDS011;53484;51.356;6.732;2023-03-01T14:47:39;11.93;;;7.05;;
66619;SDS011;53484;51.356;6.732;2023-03-01T14:50:07;13.40;;;6.78;;
66619;SDS011;53484;51.356;6.732;2023-03-01T14:52:34;12.77;;;7.05;;
66619;SDS011;53484;51.356;6.732;2023-03-01T14:55:02;13.93;;;6.47;;